Time;durP1;ratioP1;P1;durP2;ratioP2;P2;SDS_P1;SDS_P2;PMS_P1;PMS_P2;Temp;Humidity;BMP_temperature;BMP_pressure;BME280_temperature;BME280_humidity;BME280_pressure;Samples;Min_cycle;Max_cycle;Signal;HPM_P1;HPM_P2
2022/06/04 00:00:20;;;;;;;26.33;20.70;;;15.50;99.90;;;;;;4991954;28;20419;-75
2022/06/04 00:02:47;;;;;;;25.27;21.90;;;15.40;99.90;;;;;;4991702;28;20211;-75
2022/06/04 00:05:16;;;;;;;22.10;19.70;;;15.40;99.90;;;;;;4991980;28;20411;-76
2022/06/04 00:07:42;;;;;;;23.43;20.73;;;15.40;99.90;;;;;;4992089;28;20776;-76
2022/06/04 00:15:48;;;;;;;28.23;21.97;;;15.40;99.90;;;;;;4992310;28;20421;-75
2022/06/04 00:18:15;;;;;;;22.90;20.43;;;15.30;99.90;;;;;;4990526;28;20938;-75
2022/06/04 00:20:40;;;;;;;23.67;21.27;;;15.30;99.90;;;;;;4991883;28;20410;-74
2022/06/04 00:23:08;;;;;;;23.63;21.30;;;15.30;99.90;;;;;;4991932;28;20953;-75
2022/06/04 00:25:37;;;;;;;24.93;22.50;;;15.30;99.90;;;;;;4991688;28;20612;-75
2022/06/04 00:28:06;;;;;;;22.73;20.23;;;15.30;99.90;;;;;;4991934;28;20436;-75
2022/06/04 00:30:31;;;;;;;25.30;22.10;;;15.30;99.90;;;;;;4991722;28;20856;-74
2022/06/04 00:32:57;;;;;;;24.17;21.67;;;15.30;99.90;;;;;;4991718;28;20489;-75
2022/06/04 00:35:23;;;;;;;24.23;21.40;;;15.20;99.90;;;;;;4991701;28;20186;-76
2022/06/04 00:37:50;;;;;;;24.43;21.87;;;15.20;99.90;;;;;;4991869;28;20186;-76
2022/06/04 00:40:29;;;;;;;25.10;21.17;;;15.20;99.90;;;;;;4991662;28;20773;-76
2022/06/04 00:42:56;;;;;;;22.97;20.57;;;15.20;99.90;;;;;;4991761;28;21074;-77
2022/06/04 00:45:21;;;;;;;24.23;20.73;;;15.10;99.90;;;;;;4991585;28;20498;-76
2022/06/04 00:47:51;;;;;;;23.50;21.03;;;15.10;99.90;;;;;;4991801;28;20863;-76
2022/06/04 00:50:19;;;;;;;23.43;21.03;;;15.10;99.90;;;;;;4991595;28;20222;-76
2022/06/04 00:52:47;;;;;;;24.83;21.50;;;15.10;99.90;;;;;;4991877;28;20438;-76
2022/06/04 00:55:14;;;;;;;24.13;20.83;;;15.10;99.90;;;;;;4991604;28;20425;-76
2022/06/04 00:58:04;;;;;;;24.00;21.37;;;15.10;99.90;;;;;;4991744;28;20784;-76
2022/06/04 02:31:28;;;;;;;26.03;21.27;;;14.40;99.90;;;;;;5930737;23;21705;-73
2022/06/04 02:34:02;;;;;;;23.50;21.00;;;14.40;99.90;;;;;;4971949;28;20447;-76
2022/06/04 02:36:34;;;;;;;22.03;19.70;;;14.40;99.90;;;;;;4972021;28;20508;-76
2022/06/04 02:39:13;;;;;;;20.97;18.77;;;14.40;99.90;;;;;;4966461;28;20498;-75
2022/06/04 02:41:50;;;;;;;22.90;20.43;;;14.30;99.90;;;;;;4973944;28;20987;-75
2022/06/04 02:44:42;;;;;;;25.07;21.23;;;14.30;99.90;;;;;;4972995;28;20434;-75
2022/06/04 02:47:19;;;;;;;25.13;20.90;;;14.30;99.90;;;;;;4970591;28;20427;-74
2022/06/04 02:49:53;;;;;;;23.90;20.83;;;14.30;99.90;;;;;;4974080;28;20408;-73
2022/06/04 02:52:20;;;;;;;24.60;19.90;;;14.30;99.90;;;;;;4973781;28;20498;-74
2022/06/04 02:54:56;;;;;;;23.80;21.30;;;14.30;99.90;;;;;;4973672;28;20419;-74
2022/06/04 02:57:23;;;;;;;22.70;20.23;;;14.30;99.90;;;;;;4973834;28;20423;-73
2022/06/04 02:59:49;;;;;;;23.73;21.23;;;14.20;99.90;;;;;;4973754;28;20422;-73
2022/06/04 03:02:16;;;;;;;22.17;19.80;;;14.20;99.90;;;;;;4973399;28;20545;-73
2022/06/04 03:04:51;;;;;;;23.20;20.80;;;14.20;99.90;;;;;;4973686;28;20420;-73
2022/06/04 03:07:18;;;;;;;23.60;21.30;;;14.20;99.90;;;;;;4973817;28;20501;-73
2022/06/04 03:09:44;;;;;;;27.03;21.97;;;14.20;99.90;;;;;;4973507;28;20412;-72
2022/06/04 03:12:14;;;;;;;26.93;22.80;;;14.30;99.90;;;;;;4973027;28;21033;-73
2022/06/04 03:14:39;;;;;;;24.13;21.60;;;14.30;99.90;;;;;;4973780;28;20238;-74
2022/06/04 03:17:08;;;;;;;25.23;22.27;;;14.20;99.90;;;;;;4973270;28;20423;-74
2022/06/04 03:19:34;;;;;;;23.37;20.67;;;14.20;99.90;;;;;;4973397;28;20549;-74
2022/06/04 03:22:02;;;;;;;24.47;21.87;;;14.20;99.90;;;;;;4973111;28;20529;-73
2022/06/04 03:24:28;;;;;;;27.73;22.00;;;14.20;99.90;;;;;;4973447;28;20428;-73
2022/06/04 03:26:54;;;;;;;26.50;23.67;;;14.20;99.90;;;;;;4972099;28;20831;-73
2022/06/04 03:29:19;;;;;;;24.67;22.17;;;14.20;99.90;;;;;;4973044;28;20176;-74
2022/06/04 03:31:45;;;;;;;29.00;23.20;;;14.30;99.90;;;;;;4972579;28;20477;-74
2022/06/04 03:34:11;;;;;;;27.00;22.50;;;14.30;99.90;;;;;;4972995;28;20188;-73
2022/06/04 03:36:40;;;;;;;30.23;22.20;;;14.30;99.90;;;;;;4972816;28;20517;-73
2022/06/04 03:39:08;;;;;;;24.80;22.10;;;14.30;99.90;;;;;;4972896;28;20420;-73
2022/06/04 03:41:34;;;;;;;25.37;22.80;;;14.30;99.90;;;;;;4972501;28;20463;-73
2022/06/04 03:44:00;;;;;;;27.40;24.10;;;14.40;99.90;;;;;;4972826;28;20930;-74
2022/06/04 03:46:27;;;;;;;25.50;22.57;;;14.40;99.90;;;;;;4972861;28;20416;-74
2022/06/04 03:48:57;;;;;;;26.90;23.10;;;14.50;99.90;;;;;;4972633;28;20239;-73
2022/06/04 03:51:24;;;;;;;26.03;23.33;;;14.50;99.90;;;;;;4972629;28;20444;-73
2022/06/04 03:53:49;;;;;;;27.90;22.60;;;14.50;99.90;;;;;;4972193;28;20952;-73
2022/06/04 03:56:15;;;;;;;24.90;22.20;;;14.50;99.90;;;;;;4974777;28;20418;-74
2022/06/04 03:58:41;;;;;;;25.53;22.83;;;14.60;99.90;;;;;;4974756;28;20172;-74
2022/06/04 04:01:19;;;;;;;25.10;22.50;;;14.60;99.90;;;;;;4972323;28;20525;-72
2022/06/04 04:03:45;;;;;;;26.10;23.27;;;14.70;99.90;;;;;;4972627;28;20172;-73
2022/06/04 04:06:20;;;;;;;23.07;20.67;;;14.70;99.90;;;;;;4972695;28;20849;-73
2022/06/04 04:08:45;;;;;;;24.20;20.53;;;14.80;99.90;;;;;;4971327;28;20187;-73
2022/06/04 04:11:16;;;;;;;24.40;21.80;;;14.90;99.90;;;;;;4972191;28;20482;-73
2022/06/04 04:13:44;;;;;;;27.43;21.33;;;15.00;99.90;;;;;;4972637;28;20183;-73
2022/06/04 04:16:12;;;;;;;25.73;23.00;;;15.10;99.90;;;;;;4972753;28;21010;-74
2022/06/04 04:18:38;;;;;;;23.63;21.23;;;15.20;99.90;;;;;;4972973;28;20759;-75
2022/06/04 04:21:12;;;;;;;23.13;20.77;;;15.20;99.90;;;;;;4972097;28;20465;-75
2022/06/04 04:23:39;;;;;;;24.13;20.37;;;15.30;99.90;;;;;;4973052;28;20482;-75
2022/06/04 04:26:07;;;;;;;23.50;21.20;;;15.40;99.90;;;;;;4972554;28;20423;-75
2022/06/04 04:28:33;;;;;;;22.60;20.40;;;15.40;99.90;;;;;;4972700;28;20407;-74
2022/06/04 04:30:59;;;;;;;22.17;19.87;;;15.50;99.90;;;;;;4971943;28;20526;-74
2022/06/04 04:33:25;;;;;;;23.90;21.43;;;15.60;99.90;;;;;;4972932;28;20412;-74
2022/06/04 04:35:50;;;;;;;21.97;19.67;;;15.70;99.90;;;;;;4972571;28;20415;-75
2022/06/04 04:38:21;;;;;;;21.40;19.30;;;15.80;99.90;;;;;;4973426;28;20271;-75
2022/06/04 04:40:48;;;;;;;21.97;19.73;;;15.90;99.90;;;;;;4976009;28;20205;-74
2022/06/04 04:43:14;;;;;;;22.37;19.87;;;16.10;99.90;;;;;;4975957;28;20463;-74
2022/06/04 04:45:43;;;;;;;21.87;19.60;;;16.10;99.90;;;;;;4976348;28;20427;-74
2022/06/04 04:48:09;;;;;;;22.53;20.33;;;16.30;99.90;;;;;;4976163;28;20570;-74
2022/06/04 04:50:39;;;;;;;20.53;18.53;;;16.50;99.90;;;;;;4975913;28;20419;-74
2022/06/04 04:53:09;;;;;;;20.23;18.23;;;16.70;99.90;;;;;;4975923;28;20422;-75
2022/06/04 04:55:35;;;;;;;18.67;16.83;;;16.90;99.90;;;;;;4975786;28;20419;-74
2022/06/04 04:58:01;;;;;;;16.33;14.73;;;17.20;99.90;;;;;;4975978;28;20424;-75
2022/06/04 05:00:27;;;;;;;14.67;13.30;;;17.70;99.90;;;;;;4975763;28;20235;-75
2022/06/04 05:02:52;;;;;;;13.57;10.70;;;19.00;99.90;;;;;;4975222;28;20475;-74
2022/06/04 05:05:18;;;;;;;11.40;10.27;;;20.10;99.90;;;;;;4975151;28;20215;-74
2022/06/04 05:07:44;;;;;;;10.20;9.33;;;20.50;99.90;;;;;;4975828;28;20176;-75
2022/06/04 05:10:11;;;;;;;11.40;10.40;;;20.90;99.90;;;;;;4976635;28;20548;-75
2022/06/04 05:12:36;;;;;;;10.43;9.17;;;20.80;99.90;;;;;;4975055;28;20955;-74
2022/06/04 05:15:03;;;;;;;10.90;10.00;;;20.30;99.90;;;;;;4975492;28;20502;-75
2022/06/04 05:17:29;;;;;;;11.93;10.93;;;19.90;99.90;;;;;;4975495;28;20250;-74
2022/06/04 05:19:54;;;;;;;12.50;11.20;;;19.50;99.90;;;;;;4975366;28;20415;-74
2022/06/04 05:22:20;;;;;;;13.77;10.20;;;19.20;99.90;;;;;;4974552;28;20220;-75
2022/06/04 05:24:45;;;;;;;13.00;11.77;;;18.90;99.90;;;;;;4974931;28;20596;-74
2022/06/04 05:27:11;;;;;;;11.70;10.53;;;18.80;99.90;;;;;;4975474;28;20617;-75
2022/06/04 05:29:37;;;;;;;12.43;11.20;;;18.80;99.90;;;;;;4975071;28;20180;-72
2022/06/04 05:32:04;;;;;;;12.20;11.07;;;18.80;99.90;;;;;;4975100;28;20313;-72
2022/06/04 05:34:30;;;;;;;14.17;12.63;;;18.80;99.90;;;;;;4975780;28;20180;-72
2022/06/04 05:36:55;;;;;;;14.83;11.60;;;18.80;99.90;;;;;;4975204;28;20446;-71
2022/06/04 05:39:22;;;;;;;11.77;10.57;;;18.80;99.90;;;;;;4974028;28;20424;-71
2022/06/04 05:41:48;;;;;;;13.17;11.83;;;18.80;99.90;;;;;;4974883;28;20211;-72
2022/06/04 05:44:14;;;;;;;12.50;11.30;;;18.70;99.90;;;;;;4975319;28;20557;-72
2022/06/04 05:46:42;;;;;;;16.00;12.53;;;18.60;99.90;;;;;;4975323;28;20498;-72
2022/06/04 05:49:11;;;;;;;12.83;11.63;;;18.50;99.90;;;;;;4975145;28;20663;-72
2022/06/04 05:51:39;;;;;;;16.90;15.20;;;18.50;99.90;;;;;;4974424;28;20927;-73
2022/06/04 05:54:05;;;;;;;27.50;19.90;;;18.50;99.90;;;;;;4975170;28;20507;-72
2022/06/04 05:56:34;;;;;;;97.53;47.70;;;18.50;99.90;;;;;;4975556;28;20823;-73
2022/06/04 05:59:03;;;;;;;59.60;32.67;;;18.40;99.90;;;;;;4975456;28;20519;-74
2022/06/04 06:01:31;;;;;;;37.03;23.77;;;18.50;99.90;;;;;;4975446;28;20554;-71
2022/06/04 06:03:57;;;;;;;21.83;15.40;;;18.50;99.90;;;;;;4976158;28;20458;-73
2022/06/04 06:06:28;;;;;;;24.10;18.20;;;18.40;99.90;;;;;;4975720;28;20449;-72
2022/06/04 06:08:55;;;;;;;18.50;16.17;;;18.40;99.90;;;;;;4974686;28;20407;-72
2022/06/04 06:11:22;;;;;;;14.87;13.37;;;18.30;99.90;;;;;;4974800;28;20490;-77
2022/06/04 06:13:49;;;;;;;19.90;15.80;;;18.30;99.90;;;;;;4974651;28;20909;-76
2022/06/04 06:16:17;;;;;;;13.60;11.30;;;18.20;99.90;;;;;;4974513;28;20908;-74
2022/06/04 06:18:42;;;;;;;14.73;11.50;;;18.20;99.90;;;;;;4974731;28;20419;-74
2022/06/04 06:21:16;;;;;;;13.70;11.80;;;18.10;99.90;;;;;;4973989;28;20506;-74
2022/06/04 06:23:43;;;;;;;10.67;9.77;;;18.00;99.90;;;;;;4974751;28;20187;-74
2022/06/04 06:26:12;;;;;;;10.90;8.80;;;17.90;99.90;;;;;;4974505;28;20420;-74
2022/06/04 06:28:39;;;;;;;18.23;9.10;;;17.80;99.90;;;;;;4974828;28;20420;-75
2022/06/04 06:31:06;;;;;;;18.43;9.13;;;17.80;99.90;;;;;;4974064;28;20827;-75
2022/06/04 06:33:31;;;;;;;11.40;10.20;;;17.70;99.90;;;;;;4974575;28;20420;-75
2022/06/04 06:35:58;;;;;;;11.27;9.60;;;17.60;99.90;;;;;;4974777;28;20423;-74
2022/06/04 06:38:24;;;;;;;12.67;11.17;;;17.60;99.90;;;;;;4975609;28;20180;-75
2022/06/04 06:40:52;;;;;;;14.63;10.63;;;17.60;99.90;;;;;;4972726;28;20855;-75
2022/06/04 06:43:18;;;;;;;16.53;11.10;;;17.60;99.90;;;;;;4974435;28;20207;-75
2022/06/04 06:45:44;;;;;;;11.63;10.50;;;17.60;99.90;;;;;;4974660;28;20422;-74
2022/06/04 06:48:10;;;;;;;12.77;10.80;;;17.60;99.90;;;;;;4974911;28;20415;-75
2022/06/04 06:50:36;;;;;;;17.57;11.70;;;17.70;99.90;;;;;;4974446;28;20227;-75
2022/06/04 06:53:03;;;;;;;11.77;10.57;;;17.70;99.90;;;;;;4974313;28;20428;-75
2022/06/04 06:55:28;;;;;;;11.97;10.87;;;17.80;99.90;;;;;;4974289;28;20486;-75
2022/06/04 06:57:54;;;;;;;13.73;10.53;;;17.90;99.90;;;;;;4974398;28;20415;-74
2022/06/04 07:00:19;;;;;;;13.87;11.03;;;17.90;99.90;;;;;;4974143;28;20190;-74
2022/06/04 07:02:45;;;;;;;15.37;11.77;;;17.90;99.90;;;;;;4973646;28;20246;-74
2022/06/04 07:05:11;;;;;;;17.40;12.33;;;17.90;99.90;;;;;;4973947;28;20708;-73
2022/06/04 07:07:37;;;;;;;14.30;11.80;;;18.00;99.90;;;;;;4974140;28;20598;-75
2022/06/04 07:10:04;;;;;;;17.73;10.97;;;18.00;99.90;;;;;;4973926;28;20502;-75
2022/06/04 07:12:31;;;;;;;11.43;10.33;;;18.10;99.90;;;;;;4973705;28;20227;-75
2022/06/04 07:14:57;;;;;;;11.90;10.40;;;18.10;99.90;;;;;;4973125;28;20412;-75
2022/06/04 07:17:22;;;;;;;15.53;12.70;;;18.20;99.90;;;;;;4973716;28;20431;-74
2022/06/04 07:19:48;;;;;;;14.27;12.77;;;18.30;99.90;;;;;;4973317;28;20180;-75
2022/06/04 07:22:13;;;;;;;22.30;13.77;;;18.30;99.90;;;;;;4973055;28;20274;-75
2022/06/04 07:24:39;;;;;;;15.10;12.90;;;18.50;99.90;;;;;;4973454;28;20172;-75
2022/06/04 07:27:05;;;;;;;18.33;13.60;;;18.60;99.90;;;;;;4968647;28;20227;-75
2022/06/04 07:29:31;;;;;;;15.30;12.93;;;18.70;99.90;;;;;;4957870;28;20600;-75
2022/06/04 07:31:56;;;;;;;15.57;11.70;;;19.10;99.90;;;;;;4953426;28;20579;-75
2022/06/04 07:34:22;;;;;;;17.63;12.20;;;19.70;99.90;;;;;;4954051;29;20191;-76
2022/06/04 07:36:48;;;;;;;11.97;10.80;;;20.20;99.90;;;;;;4953728;29;20181;-75
2022/06/04 07:39:18;;;;;;;11.60;10.20;;;20.40;99.90;;;;;;4953937;29;20706;-75
2022/06/04 07:41:45;;;;;;;11.70;10.07;;;20.50;99.90;;;;;;4953364;29;20816;-75
2022/06/04 07:44:13;;;;;;;11.57;10.47;;;20.50;99.90;;;;;;4953582;28;20416;-77
2022/06/04 07:46:40;;;;;;;12.47;11.23;;;20.50;99.90;;;;;;4953715;29;20515;-75
2022/06/04 07:49:07;;;;;;;11.50;10.30;;;20.50;99.90;;;;;;4953546;29;20408;-75
2022/06/04 07:51:33;;;;;;;12.17;11.10;;;20.50;99.90;;;;;;4953341;29;20436;-75
2022/06/04 07:53:59;;;;;;;11.97;10.83;;;20.30;99.90;;;;;;4952739;29;20500;-75
2022/06/04 07:56:25;;;;;;;15.60;10.60;;;20.30;99.90;;;;;;4953588;29;20420;-75
2022/06/04 07:58:51;;;;;;;15.20;11.60;;;20.50;99.90;;;;;;4952326;29;20451;-76
2022/06/04 08:01:19;;;;;;;13.90;12.50;;;20.80;99.90;;;;;;4952609;28;20200;-75
2022/06/04 08:03:46;;;;;;;12.70;11.50;;;21.20;99.90;;;;;;4953328;29;20191;-75
2022/06/04 08:06:13;;;;;;;14.87;13.47;;;21.40;99.90;;;;;;4952210;29;20468;-75
2022/06/04 08:08:39;;;;;;;13.70;12.50;;;21.60;99.90;;;;;;4953879;29;20409;-75
2022/06/04 08:11:30;;;;;;;14.93;13.40;;;21.90;99.90;;;;;;4953173;29;20443;-75
2022/06/04 08:13:51;;;;;;;15.60;12.23;;;22.10;99.90;;;;;;4955063;28;20394;-73
2022/06/04 08:16:17;;;;;;;14.27;12.77;;;22.10;99.90;;;;;;4957785;28;20829;-75
2022/06/04 08:18:43;;;;;;;15.37;12.40;;;22.00;99.90;;;;;;4957804;29;20416;-75
2022/06/04 08:21:08;;;;;;;13.33;11.93;;;21.90;99.90;;;;;;4957134;29;20220;-75
2022/06/04 08:23:34;;;;;;;13.10;11.90;;;22.00;99.90;;;;;;4957329;29;20219;-75
2022/06/04 08:26:00;;;;;;;11.17;10.30;;;22.60;99.90;;;;;;4957121;29;20263;-76
2022/06/04 08:28:26;;;;;;;11.17;9.80;;;23.10;99.90;;;;;;4957245;29;20173;-75
2022/06/04 08:31:05;;;;;;;12.10;9.77;;;23.10;99.90;;;;;;4956958;28;20585;-76
2022/06/04 08:33:31;;;;;;;11.57;10.50;;;22.90;99.90;;;;;;4955954;29;20428;-76
2022/06/04 08:35:56;;;;;;;11.60;10.40;;;23.30;99.90;;;;;;4956882;28;20424;-77
2022/06/04 08:38:22;;;;;;;10.00;9.30;;;23.30;99.90;;;;;;4957036;29;20444;-76
2022/06/04 08:40:58;;;;;;;10.87;9.67;;;23.40;99.90;;;;;;4956451;29;20256;-75
2022/06/04 08:43:33;;;;;;;12.03;10.53;;;23.30;99.90;;;;;;4956873;29;20432;-76
2022/06/04 08:46:01;;;;;;;13.17;9.77;;;23.60;99.90;;;;;;4955610;29;20423;-76
2022/06/04 08:48:37;;;;;;;10.80;9.70;;;24.40;99.90;;;;;;4956898;28;20401;-76
2022/06/04 08:51:18;;;;;;;9.80;8.80;;;24.30;99.90;;;;;;4956326;29;20439;-76
2022/06/04 08:53:46;;;;;;;11.00;9.13;;;24.10;99.90;;;;;;4956822;29;20774;-76
2022/06/04 08:59:15;;;;;;;7.70;7.10;;;24.50;99.90;;;;;;4956705;29;20496;-74
2022/06/04 09:01:45;;;;;;;10.83;8.67;;;24.60;99.90;;;;;;4956399;29;20466;-76
2022/06/04 09:04:30;;;;;;;9.77;8.90;;;24.70;99.90;;;;;;4956510;29;20408;-76
2022/06/04 09:07:27;;;;;;;8.80;7.60;;;25.20;99.90;;;;;;4956426;29;20416;-76
2022/06/04 09:10:01;;;;;;;11.33;9.20;;;25.80;99.90;;;;;;4956376;29;20519;-76
2022/06/04 09:12:54;;;;;;;9.47;7.50;;;26.60;99.90;;;;;;4956256;29;21073;-76
2022/06/04 09:15:31;;;;;;;7.30;6.60;;;27.10;99.90;;;;;;4956238;29;20439;-76
2022/06/04 09:18:13;;;;;;;7.60;7.00;;;27.50;99.90;;;;;;4956301;29;20412;-76
2022/06/04 09:20:45;;;;;;;8.77;7.93;;;28.10;99.90;;;;;;4955950;29;20503;-76
2022/06/04 09:23:35;;;;;;;9.27;8.37;;;27.60;99.90;;;;;;4956863;29;20467;-74
2022/06/04 09:26:15;;;;;;;7.03;6.40;;;27.20;99.90;;;;;;4955991;28;20423;-73
2022/06/04 09:29:12;;;;;;;8.73;7.20;;;27.00;99.90;;;;;;4956199;29;20487;-73
2022/06/04 09:31:47;;;;;;;7.13;6.43;;;26.70;99.90;;;;;;4956484;29;20660;-74
2022/06/04 09:34:23;;;;;;;7.70;7.00;;;26.70;99.90;;;;;;4957635;29;20427;-75
2022/06/04 09:36:50;;;;;;;7.73;7.03;;;26.60;99.90;;;;;;4956274;29;20411;-74
2022/06/04 09:39:33;;;;;;;7.40;6.90;;;26.30;99.90;;;;;;4956231;28;20798;-74
2022/06/04 09:42:10;;;;;;;8.43;7.70;;;26.20;99.90;;;;;;4955340;29;20961;-73
2022/06/04 09:44:48;;;;;;;11.10;9.20;;;26.00;99.90;;;;;;4955832;29;20510;-73
2022/06/04 09:47:27;;;;;;;13.20;11.80;;;25.40;99.90;;;;;;4955762;29;20536;-74
2022/06/04 09:49:59;;;;;;;11.43;10.43;;;25.00;99.90;;;;;;4955638;29;20837;-74
2022/06/04 09:52:41;;;;;;;11.20;10.20;;;24.70;99.90;;;;;;4955636;29;20973;-73
2022/06/04 09:55:20;;;;;;;13.23;11.97;;;24.50;99.90;;;;;;4955808;29;20459;-71
2022/06/04 09:57:56;;;;;;;11.07;10.20;;;24.40;99.90;;;;;;4955562;29;20409;-71
2022/06/04 10:00:31;;;;;;;14.97;13.47;;;24.20;99.90;;;;;;4955819;28;20510;-73
2022/06/04 10:03:10;;;;;;;13.77;12.67;;;24.30;99.90;;;;;;4954744;29;20471;-72
2022/06/04 10:05:36;;;;;;;13.17;11.97;;;24.30;99.90;;;;;;4955567;29;20412;-73
2022/06/04 10:08:12;;;;;;;11.77;10.73;;;24.30;99.90;;;;;;4955424;29;20413;-72
2022/06/04 10:10:42;;;;;;;11.30;10.40;;;24.20;99.90;;;;;;4954816;29;20231;-72
2022/06/04 10:13:42;;;;;;;10.80;9.90;;;24.10;99.90;;;;;;4953971;29;20431;-72
2022/06/04 10:16:22;;;;;;;12.57;11.47;;;24.20;99.90;;;;;;4955087;29;20427;-72
2022/06/04 10:19:02;;;;;;;13.80;12.63;;;23.80;99.90;;;;;;4955199;28;20424;-72
2022/06/04 10:21:36;;;;;;;11.90;10.67;;;23.50;99.90;;;;;;4954835;29;20458;-72
2022/06/04 10:24:22;;;;;;;11.83;10.73;;;23.40;99.90;;;;;;4955045;29;20427;-72
2022/06/04 10:27:21;;;;;;;10.90;10.00;;;23.40;99.90;;;;;;4953778;29;20404;-72
2022/06/04 10:29:52;;;;;;;10.23;9.30;;;23.20;99.90;;;;;;4954695;28;20424;-73
2022/06/04 10:32:29;;;;;;;12.20;9.57;;;22.90;99.90;;;;;;4954600;29;20448;-74
2022/06/04 10:35:17;;;;;;;8.13;7.40;;;22.90;99.90;;;;;;4954757;29;20424;-73
2022/06/04 10:38:03;;;;;;;11.50;8.57;;;22.90;99.90;;;;;;4954543;28;20921;-73
2022/06/04 10:40:58;;;;;;;9.03;7.63;;;22.80;99.90;;;;;;4954794;29;20419;-73
2022/06/04 10:44:01;;;;;;;10.50;7.30;;;22.80;99.90;;;;;;4954791;29;20976;-73
2022/06/04 10:46:51;;;;;;;9.00;7.60;;;22.70;99.90;;;;;;4954850;29;20412;-72
2022/06/04 10:49:41;;;;;;;8.63;7.90;;;22.80;99.90;;;;;;4953338;29;20416;-74
2022/06/04 10:52:22;;;;;;;12.00;10.80;;;23.00;99.90;;;;;;4954279;29;20440;-73
2022/06/04 10:54:55;;;;;;;11.17;10.07;;;23.10;99.90;;;;;;4954603;29;20419;-74
2022/06/04 10:57:32;;;;;;;10.90;9.90;;;23.00;99.90;;;;;;4954853;29;20428;-73
2022/06/04 11:00:04;;;;;;;12.30;11.40;;;22.90;99.90;;;;;;4954886;29;20408;-73
2022/06/04 11:02:41;;;;;;;14.13;12.63;;;22.70;99.90;;;;;;4954098;29;20464;-72
2022/06/04 11:05:51;;;;;;;13.40;12.20;;;22.60;99.90;;;;;;4954020;29;20412;-72
2022/06/04 11:08:23;;;;;;;14.80;13.40;;;22.30;99.90;;;;;;4942398;29;20913;-73
2022/06/04 11:10:58;;;;;;;14.57;13.07;;;22.30;99.90;;;;;;4953754;29;20431;-72
2022/06/04 11:13:36;;;;;;;16.57;15.07;;;22.30;99.90;;;;;;4954295;29;20418;-72
2022/06/04 11:16:07;;;;;;;13.20;12.10;;;22.30;99.90;;;;;;4953857;29;20412;-72
2022/06/04 11:18:40;;;;;;;15.53;13.93;;;22.40;99.90;;;;;;4955453;28;20439;-72
2022/06/04 11:21:20;;;;;;;16.17;14.47;;;22.70;99.90;;;;;;4953625;29;20523;-72
2022/06/04 11:24:03;;;;;;;16.30;14.80;;;22.70;99.90;;;;;;4954096;29;20416;-71
2022/06/04 11:26:44;;;;;;;15.03;13.73;;;22.70;99.90;;;;;;4954116;29;20480;-71
2022/06/04 11:29:14;;;;;;;15.60;14.20;;;22.80;99.90;;;;;;4953751;29;20499;-72
2022/06/04 11:31:58;;;;;;;18.20;16.40;;;22.60;99.90;;;;;;4953078;29;20484;-73
2022/06/04 11:35:14;;;;;;;19.77;17.77;;;22.60;99.90;;;;;;4954455;29;20945;-72
2022/06/04 11:38:15;;;;;;;18.93;17.03;;;22.60;99.90;;;;;;4945075;28;20432;-73
2022/06/04 11:40:46;;;;;;;17.43;15.80;;;22.50;99.90;;;;;;4953574;29;20412;-71
2022/06/04 11:43:37;;;;;;;16.10;14.50;;;22.50;99.90;;;;;;4953755;29;20471;-72
2022/06/04 11:46:19;;;;;;;18.20;14.90;;;22.50;99.90;;;;;;4953685;29;20446;-72
2022/06/04 11:48:57;;;;;;;16.53;14.93;;;22.50;99.90;;;;;;4953158;28;20834;-71
2022/06/04 11:51:40;;;;;;;15.57;14.20;;;22.60;99.90;;;;;;4953599;29;20432;-71
2022/06/04 11:54:51;;;;;;;15.87;14.57;;;22.60;99.90;;;;;;4953658;29;20419;-72
2022/06/04 11:57:36;;;;;;;15.97;14.57;;;22.60;99.90;;;;;;4953636;29;20417;-72
2022/06/04 12:00:23;;;;;;;17.37;13.10;;;22.90;99.90;;;;;;4953505;29;20502;-71
2022/06/04 12:03:04;;;;;;;16.33;14.63;;;23.10;99.90;;;;;;4953499;28;20518;-72
2022/06/04 12:05:39;;;;;;;16.17;14.53;;;23.40;99.90;;;;;;4953574;29;20463;-72
2022/06/04 12:08:07;;;;;;;16.27;13.90;;;23.60;99.90;;;;;;4953350;29;20996;-72
2022/06/04 12:10:55;;;;;;;15.17;13.93;;;23.60;99.90;;;;;;4953294;29;20423;-70
2022/06/04 12:13:37;;;;;;;17.30;13.07;;;23.70;99.90;;;;;;4953554;29;20420;-72
2022/06/04 12:16:31;;;;;;;14.27;12.90;;;23.80;99.90;;;;;;4953397;29;20944;-72
2022/06/04 12:19:05;;;;;;;16.57;14.90;;;23.90;99.90;;;;;;4953342;29;20428;-73
2022/06/04 12:24:46;;;;;;;16.40;15.00;;;24.00;99.90;;;;;;4953494;29;20475;-72
2022/06/04 12:27:23;;;;;;;16.20;14.60;;;24.00;99.90;;;;;;4952036;29;20427;-73
2022/06/04 12:29:54;;;;;;;17.20;15.23;;;24.40;99.90;;;;;;4953270;29;20416;-73
2022/06/04 12:32:32;;;;;;;15.80;14.30;;;24.70;99.90;;;;;;4952724;29;20459;-72
2022/06/04 12:35:06;;;;;;;15.70;14.43;;;25.00;99.90;;;;;;4953194;29;20416;-71
2022/06/04 12:37:44;;;;;;;12.80;11.53;;;25.30;99.90;;;;;;4953312;29;20507;-73
2022/06/04 12:40:32;;;;;;;13.33;12.00;;;25.50;99.90;;;;;;4953203;29;20424;-71
2022/06/04 12:43:30;;;;;;;15.23;11.73;;;25.60;99.90;;;;;;4953072;29;20464;-72
2022/06/04 12:46:08;;;;;;;11.97;10.97;;;26.00;99.90;;;;;;4953175;29;20420;-73
2022/06/04 12:48:40;;;;;;;10.37;9.60;;;25.90;99.90;;;;;;4953373;29;20440;-73
2022/06/04 12:51:10;;;;;;;9.30;8.50;;;26.00;99.90;;;;;;4952807;29;20428;-72
2022/06/04 12:53:58;;;;;;;10.33;9.43;;;25.90;99.90;;;;;;4953246;29;20412;-73
2022/06/04 12:56:28;;;;;;;9.50;8.60;;;26.00;99.90;;;;;;4952937;29;20452;-73
2022/06/04 12:58:57;;;;;;;11.87;10.67;;;26.00;99.90;;;;;;4953143;28;20416;-73
2022/06/04 13:01:30;;;;;;;11.13;10.13;;;25.80;99.90;;;;;;4956341;29;20476;-72
2022/06/04 13:04:33;;;;;;;10.57;9.60;;;25.60;99.90;;;;;;4956557;29;20786;-73
2022/06/04 13:07:25;;;;;;;10.70;9.80;;;25.50;99.90;;;;;;4952863;29;20432;-73
2022/06/04 13:10:05;;;;;;;10.70;9.33;;;25.70;99.90;;;;;;4956675;29;20424;-73
2022/06/04 13:12:40;;;;;;;11.13;9.60;;;25.70;99.90;;;;;;4956174;29;20450;-73
2022/06/04 13:15:23;;;;;;;9.47;8.80;;;25.60;99.90;;;;;;4956295;29;20498;-73
2022/06/04 13:17:52;;;;;;;10.43;9.30;;;25.50;99.90;;;;;;4956555;29;20446;-72
2022/06/04 13:20:24;;;;;;;9.23;8.40;;;25.70;99.90;;;;;;4956310;28;20523;-72
2022/06/04 13:23:19;;;;;;;8.47;7.87;;;25.70;99.90;;;;;;4955964;29;20920;-72
2022/06/04 13:25:54;;;;;;;9.20;8.40;;;25.70;99.90;;;;;;4948478;29;20933;-73
2022/06/04 13:28:27;;;;;;;9.27;8.53;;;25.90;99.90;;;;;;4956108;29;20424;-73
2022/06/04 13:30:53;;;;;;;8.20;7.60;;;26.00;99.90;;;;;;4955720;28;20491;-72
2022/06/04 13:33:20;;;;;;;7.93;7.27;;;25.90;99.90;;;;;;4956134;29;20424;-73
2022/06/04 13:35:52;;;;;;;8.23;7.50;;;25.80;99.90;;;;;;4955965;28;20431;-73
2022/06/04 13:38:40;;;;;;;7.70;7.10;;;25.70;99.90;;;;;;4956276;28;20669;-72
2022/06/04 13:41:12;;;;;;;8.50;7.70;;;25.80;99.90;;;;;;4955423;29;20464;-71
2022/06/04 13:43:43;;;;;;;7.70;7.00;;;25.80;99.90;;;;;;4956210;29;20996;-72
2022/06/04 13:46:14;;;;;;;8.87;8.20;;;26.00;99.90;;;;;;4955743;28;20424;-72
2022/06/04 13:48:50;;;;;;;9.10;8.40;;;26.10;99.90;;;;;;4955813;28;20417;-72
2022/06/04 13:51:22;;;;;;;9.47;8.77;;;26.00;99.90;;;;;;4955464;29;20448;-72
2022/06/04 13:53:53;;;;;;;9.63;8.83;;;25.70;99.90;;;;;;4955449;29;20408;-73
2022/06/04 13:56:25;;;;;;;9.17;8.47;;;25.50;99.90;;;;;;4955634;29;20416;-73
2022/06/04 13:58:51;;;;;;;9.30;8.37;;;25.40;99.90;;;;;;4955585;29;20417;-73
2022/06/04 14:01:32;;;;;;;9.70;8.90;;;25.40;99.90;;;;;;4955304;29;20432;-73
2022/06/04 14:06:44;;;;;;;9.10;8.40;;;25.40;99.90;;;;;;4955484;29;20463;-73
2022/06/04 14:09:19;;;;;;;8.37;7.77;;;25.50;99.90;;;;;;4955398;29;20419;-72
2022/06/04 14:12:08;;;;;;;8.67;7.83;;;25.40;99.90;;;;;;4954228;28;20447;-73
2022/06/04 14:14:58;;;;;;;8.83;8.13;;;25.30;99.90;;;;;;4955322;29;20428;-71
2022/06/04 14:18:07;;;;;;;9.83;8.87;;;25.10;99.90;;;;;;4951418;28;20468;-72
2022/06/04 14:20:44;;;;;;;8.33;7.73;;;24.90;99.90;;;;;;4933437;29;20512;-72
2022/06/04 14:23:47;;;;;;;9.03;8.20;;;24.80;99.90;;;;;;4952184;29;20479;-73
2022/06/04 14:26:34;;;;;;;8.50;7.90;;;24.60;99.90;;;;;;4955024;29;20603;-72
2022/06/04 14:29:27;;;;;;;8.23;7.60;;;24.70;99.90;;;;;;4954918;29;20417;-72
2022/06/04 14:32:01;;;;;;;7.87;7.17;;;25.00;99.90;;;;;;4954423;29;20487;-73
2022/06/04 14:34:37;;;;;;;9.43;8.43;;;25.20;99.90;;;;;;4954838;29;20499;-72
2022/06/04 14:37:04;;;;;;;8.77;7.97;;;25.40;99.90;;;;;;4954705;29;20420;-70
2022/06/04 14:39:31;;;;;;;9.00;8.30;;;25.50;99.90;;;;;;4954670;29;20413;-72
2022/06/04 14:42:11;;;;;;;14.27;9.20;;;25.50;99.90;;;;;;4954025;28;20800;-72
2022/06/04 14:44:39;;;;;;;9.10;8.30;;;25.40;99.90;;;;;;4954632;29;20412;-72